createdAt,value
2022-12-24T00:00:02.554Z,83.82
2022-12-24T00:01:02.649Z,83.62
2022-12-24T00:02:02.944Z,83.42
2022-12-24T00:03:02.999Z,83.42
2022-12-24T00:04:03.058Z,82.60
2022-12-24T00:05:02.683Z,82.94
2022-12-24T00:06:02.850Z,82.54
2022-12-24T00:07:03.686Z,82.54
2022-12-24T00:08:03.175Z,82.43
2022-12-24T00:09:03.686Z,82.03
2022-12-24T00:10:03.199Z,82.43
2022-12-24T00:11:03.325Z,82.74
2022-12-24T00:12:03.744Z,82.33
2022-12-24T00:13:03.468Z,82.43
2022-12-24T00:14:03.494Z,82.23
2022-12-24T00:15:03.916Z,82.64
2022-12-24T00:16:03.264Z,82.23
2022-12-24T00:17:03.318Z,82.43
2022-12-24T00:18:03.062Z,82.13
2022-12-24T00:19:03.391Z,82.54
2022-12-24T00:20:02.937Z,82.03
2022-12-24T00:21:03.036Z,82.03
2022-12-24T00:22:03.937Z,82.54
2022-12-24T00:23:03.623Z,82.74
2022-12-24T00:24:03.842Z,82.78
2022-12-24T00:25:03.549Z,82.27
2022-12-24T00:26:03.474Z,82.07
2022-12-24T00:27:02.769Z,82.17
2022-12-24T00:28:02.691Z,82.17
2022-12-24T00:29:02.695Z,82.37
2022-12-24T00:30:02.479Z,82.47
2022-12-24T00:31:02.946Z,82.07
2022-12-24T00:32:03.207Z,82.68
2022-12-24T00:33:03.068Z,82.47
2022-12-24T00:34:02.793Z,82.57
2022-12-24T00:35:03.038Z,82.47
2022-12-24T00:36:02.931Z,82.68
2022-12-24T00:37:03.854Z,82.88
2022-12-24T00:38:03.834Z,83.09
2022-12-24T00:39:03.695Z,82.37
2022-12-24T00:40:03.806Z,82.57
2022-12-24T00:41:03.620Z,82.98
2022-12-24T00:42:03.057Z,83.09
2022-12-24T00:43:02.998Z,83.09
2022-12-24T00:44:02.742Z,82.88
2022-12-24T00:45:02.481Z,83.09
2022-12-24T00:46:02.724Z,83.29
2022-12-24T00:47:08.263Z,82.68
2022-12-24T00:48:02.696Z,83.09
2022-12-24T00:49:02.926Z,83.49
2022-12-24T00:50:02.779Z,83.02
2022-12-24T00:51:02.662Z,83.73
2022-12-24T00:52:03.900Z,84.00
2022-12-24T00:53:03.748Z,83.18
2022-12-24T00:54:03.524Z,83.09
2022-12-24T00:55:03.433Z,83.70
2022-12-24T00:56:03.637Z,83.18
2022-12-24T00:57:03.050Z,83.59
2022-12-24T00:58:03.082Z,84.31
2022-12-24T00:59:02.753Z,83.70
2022-12-24T01:00:02.780Z,83.70
2022-12-24T01:01:03.024Z,83.90
2022-12-24T01:02:02.378Z,83.90
2022-12-24T01:03:02.604Z,84.00
2022-12-24T01:04:02.337Z,83.59
2022-12-24T01:05:02.464Z,83.90
2022-12-24T01:06:01.892Z,83.80
2022-12-24T01:07:02.888Z,84.20
2022-12-24T01:08:02.737Z,83.80
2022-12-24T01:09:02.572Z,83.39
2022-12-24T01:10:02.639Z,83.39
2022-12-24T01:11:02.701Z,83.80
2022-12-24T01:12:02.981Z,83.70
2022-12-24T01:13:02.948Z,83.70
2022-12-24T01:14:02.625Z,83.90
2022-12-24T01:15:02.399Z,84.00
2022-12-24T01:16:02.814Z,84.00
2022-12-24T01:17:02.471Z,84.41
2022-12-24T01:18:02.848Z,84.51
2022-12-24T01:19:02.852Z,84.61
2022-12-24T01:20:02.695Z,84.61
2022-12-24T01:21:02.826Z,84.61
2022-12-24T01:22:02.521Z,84.51
2022-12-24T01:23:02.506Z,84.51
2022-12-24T01:24:01.963Z,84.82
2022-12-24T01:25:02.283Z,84.00
2022-12-24T01:26:02.053Z,84.00
2022-12-24T01:27:02.665Z,84.82
2022-12-24T01:28:02.343Z,84.72
2022-12-24T01:29:02.181Z,84.92
2022-12-24T01:30:02.122Z,84.61
2022-12-24T01:31:02.395Z,84.00
2022-12-24T01:32:02.492Z,84.41
2022-12-24T01:33:02.729Z,84.41
2022-12-24T01:34:02.883Z,84.41
2022-12-24T01:35:02.490Z,84.51
2022-12-24T01:36:02.937Z,84.92
2022-12-24T01:37:02.360Z,84.61
2022-12-24T01:38:02.431Z,84.61
2022-12-24T01:39:02.680Z,84.51
2022-12-24T01:40:02.098Z,84.51
2022-12-24T01:41:02.592Z,84.82
2022-12-24T01:42:01.701Z,84.72
2022-12-24T01:43:01.728Z,84.61
2022-12-24T01:44:02.102Z,84.72
2022-12-24T01:45:02.120Z,85.19
2022-12-24T01:46:02.121Z,84.61
2022-12-24T01:47:02.712Z,84.51
2022-12-24T01:48:02.247Z,84.92
2022-12-24T01:49:02.366Z,84.82
2022-12-24T01:50:02.632Z,84.98
2022-12-24T01:51:02.210Z,84.58
2022-12-24T01:52:02.531Z,84.82
2022-12-24T01:53:02.736Z,84.82
2022-12-24T01:54:02.402Z,84.82
2022-12-24T01:55:02.965Z,84.51
2022-12-24T01:56:02.485Z,84.51
2022-12-24T01:57:02.453Z,84.92
2022-12-24T01:58:02.175Z,85.02
2022-12-24T01:59:02.287Z,84.92
2022-12-24T02:00:02.043Z,84.92
2022-12-24T02:01:01.992Z,85.13
2022-12-24T02:02:02.592Z,85.13
2022-12-24T02:03:02.321Z,85.13
2022-12-24T02:04:02.116Z,85.02
2022-12-24T02:05:02.102Z,85.02
2022-12-24T02:06:02.216Z,85.13
2022-12-24T02:07:03.024Z,85.13
2022-12-24T02:08:02.541Z,85.13
2022-12-24T02:09:02.913Z,85.22
2022-12-24T02:10:02.715Z,84.92
2022-12-24T02:11:02.893Z,85.22
2022-12-24T02:12:02.969Z,85.13
2022-12-24T02:13:02.500Z,85.22
2022-12-24T02:14:02.396Z,85.53
2022-12-24T02:15:02.639Z,85.33
2022-12-24T02:16:02.443Z,85.43
2022-12-24T02:17:02.536Z,85.53
2022-12-24T02:18:02.813Z,85.53
2022-12-24T02:19:03.180Z,85.22
2022-12-24T02:20:02.951Z,85.43
2022-12-24T02:21:03.424Z,85.53
2022-12-24T02:22:02.543Z,85.63
2022-12-24T02:23:02.284Z,85.84
2022-12-24T02:24:02.603Z,85.84
2022-12-24T02:25:02.390Z,85.84
2022-12-24T02:26:02.619Z,85.88
2022-12-24T02:27:02.898Z,86.08
2022-12-24T02:28:02.419Z,86.18
2022-12-24T02:29:02.982Z,86.18
2022-12-24T02:30:02.765Z,86.39
2022-12-24T02:31:03.008Z,86.08
2022-12-24T02:32:03.178Z,86.18
2022-12-24T02:33:02.817Z,86.39
2022-12-24T02:34:02.808Z,86.29
2022-12-24T02:35:03.068Z,86.29
2022-12-24T02:36:03.128Z,86.59
2022-12-24T02:37:02.724Z,86.59
2022-12-24T02:38:02.265Z,86.49
2022-12-24T02:39:02.830Z,86.59
2022-12-24T02:40:02.516Z,86.59
2022-12-24T02:41:02.950Z,86.49
2022-12-24T02:42:02.854Z,86.59
2022-12-24T02:43:03.140Z,86.69
2022-12-24T02:44:02.940Z,86.90
2022-12-24T02:45:03.122Z,86.90
2022-12-24T02:46:02.811Z,86.80
2022-12-24T02:47:03.098Z,86.90
2022-12-24T02:48:02.861Z,87.14
2022-12-24T02:49:02.823Z,86.90
2022-12-24T02:50:03.081Z,86.94
2022-12-24T02:51:03.333Z,87.20
2022-12-24T02:52:02.635Z,87.24
2022-12-24T02:53:02.571Z,87.55
2022-12-24T02:54:02.415Z,87.14
2022-12-24T02:55:02.801Z,87.24
2022-12-24T02:56:02.637Z,87.30
2022-12-24T02:57:02.705Z,87.00
2022-12-24T02:58:02.974Z,87.10
2022-12-24T02:59:02.707Z,87.00
2022-12-24T03:00:02.818Z,87.30
2022-12-24T03:01:02.766Z,87.61
2022-12-24T03:02:02.358Z,87.30
2022-12-24T03:03:01.842Z,87.41
2022-12-24T03:04:02.135Z,87.41
2022-12-24T03:05:01.875Z,87.51
2022-12-24T03:06:01.752Z,86.90
2022-12-24T03:07:02.086Z,87.20
2022-12-24T03:08:02.544Z,87.10
2022-12-24T03:09:02.140Z,87.20
2022-12-24T03:10:02.760Z,87.41
2022-12-24T03:11:02.073Z,87.20
2022-12-24T03:12:03.225Z,87.41
2022-12-24T03:13:02.731Z,87.61
2022-12-24T03:14:02.636Z,87.41
2022-12-24T03:15:02.880Z,87.37
2022-12-24T03:16:03.008Z,87.10
2022-12-24T03:17:02.641Z,86.90
2022-12-24T03:18:02.578Z,87.10
2022-12-24T03:19:02.166Z,87.51
2022-12-24T03:20:02.227Z,87.41
2022-12-24T03:21:02.035Z,87.30
2022-12-24T03:22:02.813Z,87.00
2022-12-24T03:23:02.959Z,87.00
2022-12-24T03:24:02.765Z,87.00
2022-12-24T03:25:02.575Z,87.20
2022-12-24T03:26:02.603Z,87.41
2022-12-24T03:27:02.200Z,87.41
2022-12-24T03:28:01.971Z,87.41
2022-12-24T03:29:02.588Z,87.61
2022-12-24T03:30:02.510Z,87.82
2022-12-24T03:31:01.960Z,87.82
2022-12-24T03:32:02.081Z,88.02
2022-12-24T03:33:01.733Z,88.32
2022-12-24T03:34:01.755Z,88.69
2022-12-24T03:35:01.986Z,88.79
2022-12-24T03:36:02.171Z,89.14
2022-12-24T03:37:01.758Z,89.65
2022-12-24T03:38:01.760Z,89.96
2022-12-24T03:39:01.711Z,89.55
2022-12-24T03:40:01.892Z,90.36
2022-12-24T03:41:02.298Z,90.88
2022-12-24T03:42:02.238Z,91.28
2022-12-24T03:43:01.892Z,91.69
2022-12-24T03:44:02.333Z,92.14
2022-12-24T03:45:02.257Z,92.86
2022-12-24T03:46:02.408Z,93.77
2022-12-24T03:47:02.329Z,94.18
2022-12-24T03:48:01.976Z,94.79
2022-12-24T03:49:02.450Z,95.15
2022-12-24T03:50:02.071Z,95.35
2022-12-24T03:51:01.901Z,95.65
2022-12-24T03:52:02.839Z,95.56
2022-12-24T03:53:02.363Z,95.96
2022-12-24T03:54:02.889Z,96.12
2022-12-24T03:55:02.406Z,96.02
2022-12-24T03:56:02.923Z,95.81
2022-12-24T03:57:01.927Z,96.06
2022-12-24T03:58:01.853Z,96.27
2022-12-24T03:59:01.941Z,96.47
2022-12-24T04:00:01.848Z,96.68
2022-12-24T04:01:02.365Z,96.78
2022-12-24T04:02:02.481Z,96.98
2022-12-24T04:03:02.490Z,96.58
2022-12-24T04:04:01.963Z,96.33
2022-12-24T04:05:02.012Z,96.22
2022-12-24T04:06:02.059Z,96.33
2022-12-24T04:07:02.568Z,96.43
2022-12-24T04:08:02.327Z,96.22
2022-12-24T04:09:02.648Z,96.22
2022-12-24T04:10:02.520Z,96.37
2022-12-24T04:11:09.356Z,96.88
2022-12-24T04:12:02.212Z,97.08
2022-12-24T04:13:01.983Z,96.94
2022-12-24T04:14:02.323Z,96.98
2022-12-24T04:15:02.547Z,97.39
2022-12-24T04:16:02.333Z,97.24
2022-12-24T04:17:02.842Z,97.24
2022-12-24T04:18:02.595Z,97.39
2022-12-24T04:19:02.852Z,98.11
2022-12-24T04:20:03.301Z,98.41
2022-12-24T04:21:03.139Z,98.41
2022-12-24T04:22:01.769Z,98.41
2022-12-24T04:23:02.050Z,98.41
2022-12-24T04:24:02.190Z,98.52
2022-12-24T04:25:01.966Z,98.31
2022-12-24T04:26:02.461Z,98.11
2022-12-24T04:27:02.713Z,98.52
2022-12-24T04:28:02.624Z,98.72
2022-12-24T04:29:02.579Z,99.07
2022-12-24T04:30:02.775Z,99.38
2022-12-24T04:31:02.627Z,99.68
2022-12-24T04:32:02.219Z,99.99
2022-12-24T04:33:02.305Z,99.99
2022-12-24T04:34:02.440Z,99.99
2022-12-24T04:35:02.340Z,99.99
2022-12-24T04:36:02.121Z,99.99
2022-12-24T04:37:03.026Z,99.99
2022-12-24T04:38:02.851Z,99.99
2022-12-24T04:39:03.325Z,99.99
2022-12-24T04:40:02.945Z,99.99
2022-12-24T04:41:02.733Z,99.99
2022-12-24T04:42:01.977Z,99.99
2022-12-24T04:43:01.951Z,99.99
2022-12-24T04:44:01.898Z,99.99
2022-12-24T04:45:02.315Z,99.99
2022-12-24T04:46:02.120Z,99.99
2022-12-24T04:47:02.409Z,99.99
2022-12-24T04:48:02.364Z,99.99
2022-12-24T04:49:02.218Z,99.99
2022-12-24T04:50:02.083Z,99.99
2022-12-24T04:51:01.948Z,99.99
2022-12-24T04:52:02.455Z,99.99
2022-12-24T04:53:02.860Z,99.99
2022-12-24T04:54:02.262Z,99.99
2022-12-24T04:55:02.535Z,99.99
2022-12-24T04:56:02.127Z,99.99
2022-12-24T04:57:02.706Z,99.99
2022-12-24T04:58:02.503Z,99.63
2022-12-24T04:59:02.309Z,99.99
2022-12-24T05:00:02.728Z,99.93
2022-12-24T05:01:02.471Z,99.63
2022-12-24T05:02:02.420Z,99.32
2022-12-24T05:03:01.759Z,99.63
2022-12-24T05:04:02.338Z,99.22
2022-12-24T05:05:01.718Z,99.22
2022-12-24T05:06:01.813Z,98.71
2022-12-24T05:07:02.341Z,98.71
2022-12-24T05:08:02.994Z,99.32
2022-12-24T05:09:02.559Z,99.22
2022-12-24T05:10:02.463Z,99.73
2022-12-24T05:11:02.944Z,99.22
2022-12-24T05:12:02.424Z,98.86
2022-12-24T05:13:01.998Z,98.50
2022-12-24T05:14:02.508Z,98.56
2022-12-24T05:15:01.992Z,97.95
2022-12-24T05:16:02.212Z,98.05
2022-12-24T05:17:02.817Z,98.15
2022-12-24T05:18:02.630Z,97.74
2022-12-24T05:19:02.637Z,97.24
2022-12-24T05:20:02.519Z,97.44
2022-12-24T05:21:02.645Z,98.20
2022-12-24T05:22:01.672Z,98.20
2022-12-24T05:23:01.967Z,98.40
2022-12-24T05:24:01.744Z,98.61
2022-12-24T05:25:01.642Z,98.71
2022-12-24T05:26:01.851Z,98.91
2022-12-24T05:27:02.108Z,98.91
2022-12-24T05:28:02.064Z,98.30
2022-12-24T05:29:01.951Z,98.20
2022-12-24T05:30:02.029Z,97.99
2022-12-24T05:31:02.081Z,97.64
2022-12-24T05:32:02.999Z,97.44
2022-12-24T05:33:02.884Z,97.44
2022-12-24T05:34:02.712Z,97.24
2022-12-24T05:35:02.699Z,97.03
2022-12-24T05:36:02.590Z,96.83
2022-12-24T05:37:02.105Z,96.92
2022-12-24T05:38:02.324Z,96.83
2022-12-24T05:39:02.169Z,96.21
2022-12-24T05:40:02.658Z,95.96
2022-12-24T05:41:02.514Z,95.76
2022-12-24T05:42:02.113Z,95.56
2022-12-24T05:43:01.966Z,95.65
2022-12-24T05:44:01.785Z,95.56
2022-12-24T05:45:01.939Z,95.56
2022-12-24T05:46:01.906Z,95.90
2022-12-24T05:47:02.281Z,95.90
2022-12-24T05:48:02.192Z,95.90
2022-12-24T05:49:02.054Z,96.01
2022-12-24T05:50:01.776Z,95.90
2022-12-24T05:51:01.897Z,95.80
2022-12-24T05:52:02.225Z,95.80
2022-12-24T05:53:01.728Z,96.11
2022-12-24T05:54:02.312Z,96.31
2022-12-24T05:55:02.000Z,96.31
2022-12-24T05:56:01.845Z,96.51
2022-12-24T05:57:02.534Z,96.72
2022-12-24T05:58:02.274Z,96.97
2022-12-24T05:59:02.535Z,97.58
2022-12-24T06:00:02.366Z,97.79
2022-12-24T06:01:02.305Z,97.69
2022-12-24T06:02:01.924Z,98.35
2022-12-24T06:03:01.836Z,98.75
2022-12-24T06:04:02.498Z,98.75
2022-12-24T06:05:02.113Z,98.65
2022-12-24T06:06:01.936Z,98.55
2022-12-24T06:07:02.541Z,98.65
2022-12-24T06:08:02.312Z,99.37
2022-12-24T06:09:02.763Z,99.16
2022-12-24T06:10:02.528Z,99.47
2022-12-24T06:11:02.475Z,99.57
2022-12-24T06:12:02.627Z,99.57
2022-12-24T06:13:02.806Z,99.57
2022-12-24T06:14:02.443Z,98.96
2022-12-24T06:15:03.018Z,98.86
2022-12-24T06:16:02.897Z,98.86
2022-12-24T06:17:02.618Z,98.75
2022-12-24T06:18:02.570Z,99.06
2022-12-24T06:19:02.793Z,99.27
2022-12-24T06:20:02.868Z,99.78
2022-12-24T06:21:02.609Z,99.72
2022-12-24T06:22:02.574Z,99.99
2022-12-24T06:23:02.431Z,99.99
2022-12-24T06:24:02.701Z,99.99
2022-12-24T06:25:02.568Z,99.99
2022-12-24T06:26:02.265Z,99.99
2022-12-24T06:27:02.237Z,99.99
2022-12-24T06:28:02.470Z,99.99
2022-12-24T06:29:02.533Z,99.99
2022-12-24T06:30:02.354Z,99.99
2022-12-24T06:31:03.691Z,99.99
2022-12-24T06:32:02.731Z,99.99
2022-12-24T06:33:03.019Z,99.99
2022-12-24T06:34:02.929Z,99.99
2022-12-24T06:35:02.953Z,99.99
2022-12-24T06:36:02.857Z,99.93
2022-12-24T06:37:02.655Z,99.99
2022-12-24T06:38:03.392Z,99.99
2022-12-24T06:39:02.611Z,99.93
2022-12-24T06:40:02.893Z,99.52
2022-12-24T06:41:02.804Z,99.52
2022-12-24T06:42:02.592Z,99.72
2022-12-24T06:43:02.599Z,99.57
2022-12-24T06:44:02.628Z,99.37
2022-12-24T06:45:08.196Z,98.86
2022-12-24T06:46:02.941Z,98.86
2022-12-24T06:47:01.900Z,99.21
2022-12-24T06:48:02.250Z,99.31
2022-12-24T06:49:02.091Z,99.62
2022-12-24T06:50:01.946Z,99.41
2022-12-24T06:51:02.113Z,99.72
2022-12-24T06:52:02.377Z,99.62
2022-12-24T06:53:02.330Z,99.99
2022-12-24T06:54:02.259Z,99.99
2022-12-24T06:55:02.506Z,99.99
2022-12-24T06:56:02.588Z,99.99
2022-12-24T06:57:02.787Z,99.99
2022-12-24T06:58:02.589Z,99.99
2022-12-24T06:59:05.560Z,99.99
2022-12-24T07:00:02.715Z,99.99
2022-12-24T07:01:02.747Z,99.99
2022-12-24T07:02:02.090Z,99.99
2022-12-24T07:03:01.976Z,99.99
2022-12-24T07:04:02.166Z,99.99
2022-12-24T07:05:02.035Z,99.99
2022-12-24T07:06:02.358Z,99.99
2022-12-24T07:07:02.361Z,99.99
2022-12-24T07:08:02.264Z,99.99
2022-12-24T07:09:01.813Z,99.99
2022-12-24T07:10:01.727Z,99.99
2022-12-24T07:11:02.682Z,99.99
2022-12-24T07:12:02.229Z,99.99
2022-12-24T07:13:02.065Z,99.99
2022-12-24T07:14:01.897Z,99.99
2022-12-24T07:15:02.466Z,99.99
2022-12-24T07:16:02.581Z,99.99
2022-12-24T07:17:02.433Z,99.99
2022-12-24T07:18:02.350Z,99.99
2022-12-24T07:19:02.217Z,99.99
2022-12-24T07:20:02.071Z,99.99
2022-12-24T07:21:02.568Z,99.99
2022-12-24T07:22:01.900Z,99.99
2022-12-24T07:23:01.604Z,99.99
2022-12-24T07:24:01.594Z,99.99
2022-12-24T07:25:01.469Z,99.99
2022-12-24T07:26:01.951Z,99.99
2022-12-24T07:27:02.009Z,99.99
2022-12-24T07:28:01.808Z,99.99
2022-12-24T07:29:02.249Z,99.99
2022-12-24T07:30:01.815Z,99.88
2022-12-24T07:31:01.908Z,99.88
2022-12-24T07:32:02.459Z,99.88
2022-12-24T07:33:02.301Z,99.99
2022-12-24T07:34:02.474Z,99.68
2022-12-24T07:35:02.238Z,99.47
2022-12-24T07:36:02.253Z,99.68
2022-12-24T07:37:02.761Z,99.27
2022-12-24T07:38:02.585Z,99.37
2022-12-24T07:39:02.866Z,99.06
2022-12-24T07:40:02.915Z,99.37
2022-12-24T07:41:03.013Z,99.47
2022-12-24T07:42:02.030Z,99.78
2022-12-24T07:43:02.283Z,99.57
2022-12-24T07:44:02.151Z,99.47
2022-12-24T07:45:02.114Z,99.57
2022-12-24T07:46:02.638Z,99.57
2022-12-24T07:47:02.456Z,99.78
2022-12-24T07:48:02.018Z,99.88
2022-12-24T07:49:01.893Z,99.88
2022-12-24T07:50:02.668Z,99.98
2022-12-24T07:51:02.537Z,99.68
2022-12-24T07:52:01.921Z,99.16
2022-12-24T07:53:01.856Z,99.11
2022-12-24T07:54:01.771Z,99.37
2022-12-24T07:55:01.838Z,99.37
2022-12-24T07:56:04.330Z,99.78
2022-12-24T07:57:02.608Z,99.47
2022-12-24T07:58:02.599Z,99.43
2022-12-24T07:59:02.729Z,98.91
2022-12-24T08:00:02.274Z,99.02
2022-12-24T08:01:02.440Z,98.91
2022-12-24T08:02:03.661Z,99.02
2022-12-24T08:03:03.401Z,99.11
2022-12-24T08:04:03.126Z,98.71
2022-12-24T08:05:02.970Z,98.71
2022-12-24T08:06:02.974Z,99.02
2022-12-24T08:07:03.346Z,99.32
2022-12-24T08:08:03.452Z,98.91
2022-12-24T08:09:03.432Z,99.02
2022-12-24T08:10:03.017Z,98.91
2022-12-24T08:11:02.984Z,98.61
2022-12-24T08:12:03.079Z,98.71
2022-12-24T08:13:02.579Z,98.61
2022-12-24T08:14:02.830Z,98.71
2022-12-24T08:15:02.892Z,99.02
2022-12-24T08:16:02.567Z,99.02
2022-12-24T08:17:02.613Z,98.71
2022-12-24T08:18:02.563Z,98.91
2022-12-24T08:19:02.476Z,98.71
2022-12-24T08:20:02.317Z,98.71
2022-12-24T08:21:02.290Z,99.11
2022-12-24T08:22:03.061Z,98.81
2022-12-24T08:23:02.653Z,98.61
2022-12-24T08:24:03.174Z,98.50
2022-12-24T08:25:02.684Z,98.81
2022-12-24T08:26:02.743Z,98.40
2022-12-24T08:27:02.753Z,98.30
2022-12-24T08:28:02.210Z,98.50
2022-12-24T08:29:02.236Z,98.50
2022-12-24T08:30:02.354Z,97.89
2022-12-24T08:31:02.352Z,97.89
2022-12-24T08:32:03.453Z,97.89
2022-12-24T08:33:03.086Z,98.20
2022-12-24T08:34:03.073Z,98.40
2022-12-24T08:35:02.931Z,98.71
2022-12-24T08:36:03.052Z,98.40
2022-12-24T08:37:02.509Z,98.50
2022-12-24T08:38:02.128Z,97.69
2022-12-24T08:39:02.375Z,97.99
2022-12-24T08:40:02.267Z,98.40
2022-12-24T08:41:02.307Z,98.20
2022-12-24T08:42:02.936Z,97.89
2022-12-24T08:43:02.423Z,97.79
2022-12-24T08:44:02.692Z,97.58
2022-12-24T08:45:02.319Z,97.58
2022-12-24T08:46:02.437Z,97.89
2022-12-24T08:47:02.989Z,98.05
2022-12-24T08:48:03.566Z,97.64
2022-12-24T08:49:03.516Z,98.15
2022-12-24T08:50:03.506Z,97.74
2022-12-24T08:51:03.952Z,97.95
2022-12-24T08:52:02.438Z,97.95
2022-12-24T08:53:02.586Z,98.05
2022-12-24T08:54:02.124Z,97.64
2022-12-24T08:55:02.350Z,97.24
2022-12-24T08:56:02.102Z,96.42
2022-12-24T08:57:02.600Z,96.62
2022-12-24T08:58:02.933Z,96.51
2022-12-24T08:59:02.717Z,97.13
2022-12-24T09:00:02.886Z,97.13
2022-12-24T09:01:02.890Z,97.24
2022-12-24T09:02:02.886Z,97.44
2022-12-24T09:03:03.032Z,96.11
2022-12-24T09:04:03.072Z,96.72
2022-12-24T09:05:03.125Z,96.58
2022-12-24T09:06:03.217Z,96.88
2022-12-24T09:07:02.600Z,97.29
2022-12-24T09:08:02.472Z,96.98
2022-12-24T09:09:02.266Z,97.29
2022-12-24T09:10:02.170Z,96.27
2022-12-24T09:11:02.304Z,95.65
2022-12-24T09:12:02.239Z,95.76
2022-12-24T09:13:02.323Z,96.22
2022-12-24T09:14:02.512Z,96.22
2022-12-24T09:15:04.165Z,95.61
2022-12-24T09:16:02.156Z,95.51
2022-12-24T09:17:02.298Z,94.79
2022-12-24T09:18:02.315Z,94.29
2022-12-24T09:19:02.373Z,94.49
2022-12-24T09:20:02.296Z,94.53
2022-12-24T09:21:02.050Z,94.64
2022-12-24T09:22:02.538Z,94.74
2022-12-24T09:23:02.618Z,94.02
2022-12-24T09:24:02.945Z,94.90
2022-12-24T09:25:03.006Z,95.20
2022-12-24T09:26:02.904Z,94.79
2022-12-24T09:27:02.462Z,95.00
2022-12-24T09:28:02.113Z,95.31
2022-12-24T09:29:01.881Z,95.00
2022-12-24T09:30:02.067Z,95.10
2022-12-24T09:31:02.252Z,94.79
2022-12-24T09:32:02.694Z,94.70
2022-12-24T09:33:02.480Z,93.98
2022-12-24T09:34:02.983Z,93.98
2022-12-24T09:35:02.997Z,93.57
2022-12-24T09:36:02.421Z,94.38
2022-12-24T09:37:02.855Z,95.10
2022-12-24T09:38:03.071Z,95.10
2022-12-24T09:39:03.003Z,94.18
2022-12-24T09:40:02.631Z,94.59
2022-12-24T09:41:08.748Z,94.49
2022-12-24T09:42:02.183Z,94.08
2022-12-24T09:43:01.848Z,94.70
2022-12-24T09:44:01.827Z,94.70
2022-12-24T09:45:02.083Z,94.14
2022-12-24T09:46:02.325Z,94.04
2022-12-24T09:47:08.172Z,93.63
2022-12-24T09:48:02.594Z,94.34
2022-12-24T09:49:02.456Z,93.63
2022-12-24T09:50:02.782Z,93.84
2022-12-24T09:51:02.366Z,94.55
2022-12-24T09:52:02.106Z,94.85
2022-12-24T09:53:02.223Z,94.55
2022-12-24T09:54:01.855Z,94.34
2022-12-24T09:55:02.225Z,94.45
2022-12-24T09:56:01.889Z,94.34
2022-12-24T09:57:02.306Z,94.30
2022-12-24T09:58:02.221Z,93.18
2022-12-24T09:59:02.538Z,93.59
2022-12-24T10:00:02.259Z,93.38
2022-12-24T10:01:01.893Z,93.38
2022-12-24T10:02:02.562Z,93.48
2022-12-24T10:03:02.747Z,93.48
2022-12-24T10:04:02.677Z,93.59
2022-12-24T10:05:02.413Z,92.97
2022-12-24T10:06:02.507Z,93.18
2022-12-24T10:07:02.550Z,93.54
2022-12-24T10:08:02.735Z,92.93
2022-12-24T10:09:02.718Z,92.93
2022-12-24T10:10:03.008Z,93.13
2022-12-24T10:11:03.032Z,93.13
2022-12-24T10:12:02.548Z,93.64
2022-12-24T10:13:02.117Z,93.24
2022-12-24T10:14:02.355Z,92.72
2022-12-24T10:15:02.015Z,93.44
2022-12-24T10:16:01.867Z,93.24
2022-12-24T10:17:02.774Z,92.89
2022-12-24T10:18:02.561Z,92.38
2022-12-24T10:19:02.492Z,92.48
2022-12-24T10:20:02.591Z,92.58
2022-12-24T10:21:02.632Z,92.89
2022-12-24T10:22:03.119Z,91.97
2022-12-24T10:23:03.178Z,91.66
2022-12-24T10:24:02.822Z,91.36
2022-12-24T10:25:03.053Z,90.95
2022-12-24T10:26:02.762Z,90.85
2022-12-24T10:27:02.872Z,91.46
2022-12-24T10:28:02.425Z,90.95
2022-12-24T10:29:02.903Z,91.56
2022-12-24T10:30:02.780Z,91.56
2022-12-24T10:31:02.896Z,91.05
2022-12-24T10:32:02.694Z,90.64
2022-12-24T10:33:02.977Z,90.34
2022-12-24T10:34:02.391Z,91.16
2022-12-24T10:35:02.381Z,90.95
2022-12-24T10:36:08.144Z,89.83
2022-12-24T10:37:02.995Z,89.73
2022-12-24T10:38:02.657Z,89.32
2022-12-24T10:39:03.166Z,90.55
2022-12-24T10:40:03.059Z,90.34
2022-12-24T10:41:02.812Z,90.75
2022-12-24T10:42:02.399Z,90.64
2022-12-24T10:43:01.956Z,91.16
2022-12-24T10:44:02.115Z,91.05
2022-12-24T10:45:02.386Z,90.85
2022-12-24T10:46:02.483Z,90.55
2022-12-24T10:47:02.633Z,90.55
2022-12-24T10:48:02.552Z,89.94
2022-12-24T10:49:02.237Z,89.83
2022-12-24T10:50:02.520Z,90.44
2022-12-24T10:51:02.239Z,90.55
2022-12-24T10:52:02.774Z,90.85
2022-12-24T10:53:02.684Z,90.95
2022-12-24T10:54:02.779Z,90.24
2022-12-24T10:55:02.559Z,90.20
2022-12-24T10:56:02.590Z,90.14
2022-12-24T10:57:02.637Z,89.63
2022-12-24T10:58:02.424Z,89.83
2022-12-24T10:59:02.255Z,90.44
2022-12-24T11:00:02.295Z,89.79
2022-12-24T11:01:02.623Z,88.71
2022-12-24T11:02:03.247Z,88.92
2022-12-24T11:03:03.103Z,89.63
2022-12-24T11:04:02.630Z,90.24
2022-12-24T11:05:02.978Z,90.55
2022-12-24T11:06:02.763Z,90.55
2022-12-24T11:07:03.545Z,89.99
2022-12-24T11:08:03.674Z,90.40
2022-12-24T11:09:03.585Z,90.09
2022-12-24T11:10:03.681Z,90.30
2022-12-24T11:11:03.348Z,89.69
2022-12-24T11:12:08.709Z,89.07
2022-12-24T11:13:35.680Z,89.89
2022-12-24T11:14:02.459Z,88.77
2022-12-24T11:15:02.350Z,89.48
2022-12-24T11:16:02.483Z,89.99
2022-12-24T11:17:03.325Z,89.79
2022-12-24T11:18:03.153Z,88.77
2022-12-24T11:19:03.309Z,88.06
2022-12-24T11:20:03.168Z,88.77
2022-12-24T11:21:03.290Z,88.77
2022-12-24T11:22:03.366Z,88.26
2022-12-24T11:23:03.063Z,88.57
2022-12-24T11:24:03.287Z,88.98
2022-12-24T11:25:03.489Z,88.67
2022-12-24T11:26:02.895Z,88.67
2022-12-24T11:27:02.989Z,88.98
2022-12-24T11:28:02.637Z,89.18
2022-12-24T11:29:02.433Z,88.63
2022-12-24T11:30:05.195Z,88.12
2022-12-24T11:31:02.772Z,89.14
2022-12-24T11:32:02.902Z,88.42
2022-12-24T11:33:03.001Z,88.93
2022-12-24T11:34:02.923Z,88.02
2022-12-24T11:35:02.398Z,87.92
2022-12-24T11:36:02.607Z,88.22
2022-12-24T11:37:03.345Z,88.22
2022-12-24T11:38:03.085Z,88.53
2022-12-24T11:39:02.883Z,88.22
2022-12-24T11:40:03.004Z,88.32
2022-12-24T11:41:02.863Z,87.30
2022-12-24T11:42:02.385Z,87.61
2022-12-24T11:43:02.926Z,87.92
2022-12-24T11:44:02.840Z,88.22
2022-12-24T11:45:02.415Z,88.32
2022-12-24T11:46:02.551Z,87.61
2022-12-24T11:47:02.977Z,87.81
2022-12-24T11:48:02.979Z,88.42
2022-12-24T11:49:07.797Z,88.63
2022-12-24T11:50:18.246Z,87.81
2022-12-24T11:51:03.239Z,87.41
2022-12-24T11:52:03.392Z,88.02
2022-12-24T11:53:02.569Z,87.51
2022-12-24T11:54:02.614Z,87.41
2022-12-24T11:55:02.680Z,87.92
2022-12-24T11:56:02.710Z,87.41
2022-12-24T11:57:02.696Z,87.92
2022-12-24T11:58:02.883Z,88.53
2022-12-24T11:59:03.425Z,88.12
2022-12-24T12:00:03.081Z,89.03
2022-12-24T12:01:02.967Z,87.26
2022-12-24T12:02:03.355Z,87.37
2022-12-24T12:03:02.905Z,87.26
2022-12-24T12:04:03.153Z,87.47
2022-12-24T12:05:03.238Z,87.98
2022-12-24T12:06:03.161Z,88.18
2022-12-24T12:07:02.938Z,87.16
2022-12-24T12:08:02.897Z,86.65
2022-12-24T12:09:03.266Z,87.16
2022-12-24T12:10:03.139Z,87.77
2022-12-24T12:11:02.860Z,87.23
2022-12-24T12:12:03.275Z,87.84
2022-12-24T12:13:03.044Z,86.71
2022-12-24T12:14:03.223Z,86.82
2022-12-24T12:15:03.184Z,87.43
2022-12-24T12:16:03.286Z,87.32
2022-12-24T12:17:03.469Z,86.31
2022-12-24T12:18:02.351Z,87.02
2022-12-24T12:19:02.481Z,87.53
2022-12-24T12:20:02.309Z,87.02
2022-12-24T12:21:02.230Z,87.23
2022-12-24T12:22:02.309Z,87.43
2022-12-24T12:23:02.237Z,87.12
2022-12-24T12:24:02.287Z,87.12
2022-12-24T12:25:02.366Z,87.53
2022-12-24T12:26:02.519Z,87.23
2022-12-24T12:27:02.018Z,87.84
2022-12-24T12:28:02.580Z,87.23
2022-12-24T12:29:02.505Z,87.32
2022-12-24T12:30:02.546Z,87.12
2022-12-24T12:31:02.794Z,87.53
2022-12-24T12:32:02.851Z,87.93
2022-12-24T12:33:03.053Z,86.47
2022-12-24T12:34:03.033Z,86.92
2022-12-24T12:35:02.934Z,87.08
2022-12-24T12:36:02.832Z,87.18
2022-12-24T12:37:02.908Z,86.88
2022-12-24T12:38:02.291Z,86.27
2022-12-24T12:39:02.596Z,85.96
2022-12-24T12:40:02.341Z,86.10
2022-12-24T12:41:02.922Z,86.82
2022-12-24T12:42:02.604Z,87.12
2022-12-24T12:43:02.946Z,86.71
2022-12-24T12:44:03.435Z,87.12
2022-12-24T12:45:03.636Z,86.68
2022-12-24T12:46:03.415Z,86.68
2022-12-24T12:47:03.462Z,86.07
2022-12-24T12:48:02.762Z,87.08
2022-12-24T12:49:03.394Z,86.88
2022-12-24T12:50:02.963Z,86.68
2022-12-24T12:51:03.118Z,87.18
2022-12-24T12:52:03.115Z,86.77